sensor_id;sensor_type;location;lat;lon;timestamp;P1;durP1;ratioP1;P2;durP2;ratioP2
55254;SDS011;41118;44.634;11.182;2023-01-13T00:01:12;11.95;;;3.28;;
55254;SDS011;41118;44.634;11.182;2023-01-13T00:03:39;7.22;;;3.05;;
55254;SDS011;41118;44.634;11.182;2023-01-13T00:06:05;5.03;;;2.97;;
55254;SDS011;41118;44.634;11.182;2023-01-13T00:08:32;8.93;;;3.33;;
55254;SDS011;41118;44.634;11.182;2023-01-13T00:10:58;9.13;;;3.75;;
55254;SDS011;41118;44.634;11.182;2023-01-13T00:13:24;8.82;;;4.88;;
55254;SDS011;41118;44.634;11.182;2023-01-13T00:15:59;9.27;;;3.17;;
55254;SDS011;41118;44.634;11.182;2023-01-13T00:18:25;11.73;;;2.97;;
55254;SDS011;41118;44.634;11.182;2023-01-13T00:20:59;10.32;;;3.33;;
55254;SDS011;41118;44.634;11.182;2023-01-13T00:23:28;8.65;;;2.95;;
55254;SDS011;41118;44.634;11.182;2023-01-13T00:25:55;11.07;;;3.08;;
55254;SDS011;41118;44.634;11.182;2023-01-13T00:28:21;11.70;;;2.25;;
55254;SDS011;41118;44.634;11.182;2023-01-13T00:30:47;11.18;;;4.25;;
55254;SDS011;41118;44.634;11.182;2023-01-13T00:33:13;9.95;;;2.50;;
55254;SDS011;41118;44.634;11.182;2023-01-13T00:35:40;12.38;;;2.90;;
55254;SDS011;41118;44.634;11.182;2023-01-13T00:38:06;13.02;;;2.75;;
55254;SDS011;41118;44.634;11.182;2023-01-13T00:40:32;6.40;;;1.98;;
55254;SDS011;41118;44.634;11.182;2023-01-13T00:42:58;7.53;;;3.28;;
55254;SDS011;41118;44.634;11.182;2023-01-13T00:45:43;7.18;;;3.15;;
55254;SDS011;41118;44.634;11.182;2023-01-13T00:48:09;4.88;;;1.38;;
55254;SDS011;41118;44.634;11.182;2023-01-13T00:50:36;7.18;;;2.63;;
55254;SDS011;41118;44.634;11.182;2023-01-13T00:53:02;7.03;;;1.90;;
55254;SDS011;41118;44.634;11.182;2023-01-13T00:55:29;6.07;;;2.33;;
55254;SDS011;41118;44.634;11.182;2023-01-13T00:57:56;7.18;;;2.15;;
55254;SDS011;41118;44.634;11.182;2023-01-13T01:00:27;5.70;;;2.67;;
55254;SDS011;41118;44.634;11.182;2023-01-13T01:02:54;7.78;;;1.85;;
55254;SDS011;41118;44.634;11.182;2023-01-13T01:05:20;7.28;;;2.45;;
55254;SDS011;41118;44.634;11.182;2023-01-13T01:07:45;12.60;;;1.98;;
55254;SDS011;41118;44.634;11.182;2023-01-13T01:10:12;8.23;;;2.08;;
55254;SDS011;41118;44.634;11.182;2023-01-13T01:12:38;5.38;;;1.60;;
55254;SDS011;41118;44.634;11.182;2023-01-13T01:15:05;3.72;;;1.30;;
55254;SDS011;41118;44.634;11.182;2023-01-13T01:17:33;7.80;;;2.40;;
55254;SDS011;41118;44.634;11.182;2023-01-13T01:19:59;3.78;;;1.15;;
55254;SDS011;41118;44.634;11.182;2023-01-13T01:22:25;5.88;;;1.27;;
55254;SDS011;41118;44.634;11.182;2023-01-13T01:24:51;10.65;;;2.33;;
55254;SDS011;41118;44.634;11.182;2023-01-13T01:27:17;8.77;;;1.35;;
55254;SDS011;41118;44.634;11.182;2023-01-13T01:29:43;6.43;;;1.40;;
55254;SDS011;41118;44.634;11.182;2023-01-13T01:32:09;5.85;;;1.02;;
55254;SDS011;41118;44.634;11.182;2023-01-13T01:34:36;6.20;;;2.50;;
55254;SDS011;41118;44.634;11.182;2023-01-13T01:37:03;9.27;;;1.95;;
55254;SDS011;41118;44.634;11.182;2023-01-13T01:39:30;5.25;;;1.77;;
55254;SDS011;41118;44.634;11.182;2023-01-13T01:41:56;5.07;;;0.93;;
55254;SDS011;41118;44.634;11.182;2023-01-13T01:47:11;4.30;;;1.17;;
55254;SDS011;41118;44.634;11.182;2023-01-13T01:49:38;6.47;;;1.05;;
55254;SDS011;41118;44.634;11.182;2023-01-13T01:52:10;4.78;;;1.00;;
55254;SDS011;41118;44.634;11.182;2023-01-13T01:54:39;10.88;;;2.13;;
55254;SDS011;41118;44.634;11.182;2023-01-13T01:57:07;7.40;;;1.17;;
55254;SDS011;41118;44.634;11.182;2023-01-13T01:59:34;6.03;;;1.83;;
55254;SDS011;41118;44.634;11.182;2023-01-13T02:02:00;5.32;;;1.88;;
55254;SDS011;41118;44.634;11.182;2023-01-13T02:04:28;4.78;;;1.10;;
55254;SDS011;41118;44.634;11.182;2023-01-13T02:06:55;4.80;;;1.42;;
55254;SDS011;41118;44.634;11.182;2023-01-13T02:09:23;4.70;;;1.17;;
55254;SDS011;41118;44.634;11.182;2023-01-13T02:11:49;4.63;;;1.60;;
55254;SDS011;41118;44.634;11.182;2023-01-13T02:14:34;3.85;;;1.42;;
55254;SDS011;41118;44.634;11.182;2023-01-13T02:32:33;4.88;;;1.65;;
55254;SDS011;41118;44.634;11.182;2023-01-13T02:37:27;10.93;;;1.98;;
55254;SDS011;41118;44.634;11.182;2023-01-13T02:40:32;4.40;;;1.00;;
55254;SDS011;41118;44.634;11.182;2023-01-13T02:43:01;4.85;;;2.15;;
55254;SDS011;41118;44.634;11.182;2023-01-13T02:45:51;4.03;;;0.68;;
55254;SDS011;41118;44.634;11.182;2023-01-13T02:48:19;4.53;;;0.60;;
55254;SDS011;41118;44.634;11.182;2023-01-13T02:50:55;6.63;;;1.17;;
55254;SDS011;41118;44.634;11.182;2023-01-13T02:53:29;2.65;;;0.80;;
55254;SDS011;41118;44.634;11.182;2023-01-13T02:55:58;8.13;;;1.25;;
55254;SDS011;41118;44.634;11.182;2023-01-13T02:58:26;4.72;;;1.30;;
55254;SDS011;41118;44.634;11.182;2023-01-13T03:00:53;3.47;;;1.52;;
55254;SDS011;41118;44.634;11.182;2023-01-13T03:03:19;8.20;;;0.95;;
55254;SDS011;41118;44.634;11.182;2023-01-13T03:05:46;7.50;;;1.95;;
55254;SDS011;41118;44.634;11.182;2023-01-13T03:21:08;7.53;;;1.45;;
55254;SDS011;41118;44.634;11.182;2023-01-13T03:23:50;2.42;;;0.95;;
55254;SDS011;41118;44.634;11.182;2023-01-13T03:26:23;4.50;;;1.05;;
55254;SDS011;41118;44.634;11.182;2023-01-13T03:28:57;3.85;;;1.23;;
55254;SDS011;41118;44.634;11.182;2023-01-13T03:31:26;3.45;;;0.85;;
55254;SDS011;41118;44.634;11.182;2023-01-13T03:33:56;2.75;;;0.60;;
55254;SDS011;41118;44.634;11.182;2023-01-13T03:36:24;3.83;;;0.80;;
55254;SDS011;41118;44.634;11.182;2023-01-13T03:38:52;5.55;;;0.70;;
55254;SDS011;41118;44.634;11.182;2023-01-13T03:41:53;3.75;;;1.15;;
55254;SDS011;41118;44.634;11.182;2023-01-13T03:44:14;5.60;;;1.02;;
55254;SDS011;41118;44.634;11.182;2023-01-13T03:49:23;2.42;;;0.70;;
55254;SDS011;41118;44.634;11.182;2023-01-13T03:51:51;8.60;;;0.60;;
55254;SDS011;41118;44.634;11.182;2023-01-13T03:54:20;3.35;;;0.80;;
55254;SDS011;41118;44.634;11.182;2023-01-13T03:56:53;4.65;;;0.90;;
55254;SDS011;41118;44.634;11.182;2023-01-13T03:59:25;7.95;;;1.05;;
55254;SDS011;41118;44.634;11.182;2023-01-13T04:04:25;2.13;;;0.88;;
55254;SDS011;41118;44.634;11.182;2023-01-13T04:07:07;5.72;;;0.70;;
55254;SDS011;41118;44.634;11.182;2023-01-13T04:12:16;2.88;;;1.33;;
55254;SDS011;41118;44.634;11.182;2023-01-13T04:14:42;4.38;;;0.95;;
55254;SDS011;41118;44.634;11.182;2023-01-13T04:17:10;3.20;;;0.73;;
55254;SDS011;41118;44.634;11.182;2023-01-13T04:19:37;4.00;;;1.33;;
55254;SDS011;41118;44.634;11.182;2023-01-13T04:22:03;3.35;;;1.13;;
55254;SDS011;41118;44.634;11.182;2023-01-13T04:24:29;3.72;;;1.40;;
55254;SDS011;41118;44.634;11.182;2023-01-13T04:26:55;4.80;;;1.50;;
55254;SDS011;41118;44.634;11.182;2023-01-13T04:29:22;4.18;;;1.23;;
55254;SDS011;41118;44.634;11.182;2023-01-13T04:31:48;4.32;;;0.90;;
55254;SDS011;41118;44.634;11.182;2023-01-13T04:34:15;5.60;;;0.60;;
55254;SDS011;41118;44.634;11.182;2023-01-13T04:36:41;6.13;;;0.90;;
55254;SDS011;41118;44.634;11.182;2023-01-13T04:39:08;4.70;;;0.85;;
55254;SDS011;41118;44.634;11.182;2023-01-13T04:41:34;4.93;;;0.50;;
55254;SDS011;41118;44.634;11.182;2023-01-13T04:44:19;2.67;;;0.80;;
55254;SDS011;41118;44.634;11.182;2023-01-13T04:46:45;4.15;;;0.88;;
55254;SDS011;41118;44.634;11.182;2023-01-13T04:49:11;8.80;;;1.85;;
55254;SDS011;41118;44.634;11.182;2023-01-13T04:51:38;5.32;;;1.20;;
55254;SDS011;41118;44.634;11.182;2023-01-13T04:54:04;2.28;;;0.60;;
55254;SDS011;41118;44.634;11.182;2023-01-13T04:56:30;7.13;;;1.65;;
55254;SDS011;41118;44.634;11.182;2023-01-13T04:58:56;4.38;;;1.00;;
55254;SDS011;41118;44.634;11.182;2023-01-13T05:01:22;3.90;;;1.48;;
55254;SDS011;41118;44.634;11.182;2023-01-13T05:03:48;6.03;;;1.80;;
55254;SDS011;41118;44.634;11.182;2023-01-13T05:06:15;5.03;;;0.70;;
55254;SDS011;41118;44.634;11.182;2023-01-13T05:08:41;2.88;;;0.50;;
55254;SDS011;41118;44.634;11.182;2023-01-13T05:11:07;3.28;;;0.65;;
55254;SDS011;41118;44.634;11.182;2023-01-13T05:13:51;2.08;;;0.75;;
55254;SDS011;41118;44.634;11.182;2023-01-13T05:19:21;11.38;;;1.88;;
55254;SDS011;41118;44.634;11.182;2023-01-13T05:21:47;5.05;;;1.70;;
55254;SDS011;41118;44.634;11.182;2023-01-13T05:24:31;8.68;;;1.50;;
55254;SDS011;41118;44.634;11.182;2023-01-13T05:27:16;6.45;;;1.90;;
55254;SDS011;41118;44.634;11.182;2023-01-13T05:29:42;10.00;;;1.75;;
55254;SDS011;41118;44.634;11.182;2023-01-13T05:32:09;4.63;;;1.13;;
55254;SDS011;41118;44.634;11.182;2023-01-13T05:34:35;6.68;;;1.58;;
55254;SDS011;41118;44.634;11.182;2023-01-13T05:37:01;4.85;;;0.80;;
55254;SDS011;41118;44.634;11.182;2023-01-13T05:39:27;3.80;;;1.75;;
55254;SDS011;41118;44.634;11.182;2023-01-13T05:42:13;5.13;;;0.70;;
55254;SDS011;41118;44.634;11.182;2023-01-13T05:44:58;6.28;;;1.73;;
55254;SDS011;41118;44.634;11.182;2023-01-13T05:47:24;3.85;;;0.90;;
55254;SDS011;41118;44.634;11.182;2023-01-13T05:49:50;11.18;;;1.48;;
55254;SDS011;41118;44.634;11.182;2023-01-13T05:52:16;3.78;;;1.10;;
55254;SDS011;41118;44.634;11.182;2023-01-13T05:54:42;3.72;;;0.65;;
55254;SDS011;41118;44.634;11.182;2023-01-13T05:57:08;6.93;;;1.70;;
55254;SDS011;41118;44.634;11.182;2023-01-13T05:59:34;5.28;;;0.90;;
55254;SDS011;41118;44.634;11.182;2023-01-13T06:02:01;2.33;;;1.05;;
55254;SDS011;41118;44.634;11.182;2023-01-13T06:04:27;2.92;;;0.77;;
55254;SDS011;41118;44.634;11.182;2023-01-13T06:06:53;4.38;;;1.23;;
55254;SDS011;41118;44.634;11.182;2023-01-13T06:09:20;6.25;;;0.60;;
55254;SDS011;41118;44.634;11.182;2023-01-13T06:11:46;4.20;;;0.95;;
55254;SDS011;41118;44.634;11.182;2023-01-13T06:14:12;3.88;;;1.25;;
55254;SDS011;41118;44.634;11.182;2023-01-13T06:16:38;18.25;;;1.45;;
55254;SDS011;41118;44.634;11.182;2023-01-13T06:19:04;4.40;;;0.88;;
55254;SDS011;41118;44.634;11.182;2023-01-13T06:21:33;2.72;;;0.60;;
55254;SDS011;41118;44.634;11.182;2023-01-13T06:23:59;11.52;;;0.80;;
55254;SDS011;41118;44.634;11.182;2023-01-13T06:26:25;2.10;;;0.70;;
55254;SDS011;41118;44.634;11.182;2023-01-13T06:28:53;4.95;;;0.93;;
55254;SDS011;41118;44.634;11.182;2023-01-13T06:31:19;4.20;;;1.05;;
55254;SDS011;41118;44.634;11.182;2023-01-13T06:33:50;5.63;;;1.52;;
55254;SDS011;41118;44.634;11.182;2023-01-13T06:36:19;4.95;;;0.75;;
55254;SDS011;41118;44.634;11.182;2023-01-13T06:38:47;2.25;;;0.70;;
55254;SDS011;41118;44.634;11.182;2023-01-13T06:41:16;4.35;;;0.80;;
55254;SDS011;41118;44.634;11.182;2023-01-13T06:44:02;3.92;;;1.08;;
55254;SDS011;41118;44.634;11.182;2023-01-13T06:46:29;10.18;;;0.98;;
55254;SDS011;41118;44.634;11.182;2023-01-13T06:48:55;7.30;;;0.80;;
55254;SDS011;41118;44.634;11.182;2023-01-13T06:51:21;6.78;;;1.00;;
55254;SDS011;41118;44.634;11.182;2023-01-13T06:53:47;3.63;;;0.75;;
55254;SDS011;41118;44.634;11.182;2023-01-13T06:56:13;7.32;;;1.10;;
55254;SDS011;41118;44.634;11.182;2023-01-13T06:58:39;4.18;;;1.15;;
55254;SDS011;41118;44.634;11.182;2023-01-13T07:01:05;5.47;;;0.73;;
55254;SDS011;41118;44.634;11.182;2023-01-13T07:03:32;3.45;;;1.00;;
55254;SDS011;41118;44.634;11.182;2023-01-13T07:05:58;7.38;;;1.90;;
55254;SDS011;41118;44.634;11.182;2023-01-13T07:08:25;12.55;;;0.90;;
55254;SDS011;41118;44.634;11.182;2023-01-13T07:10:51;6.50;;;0.70;;
55254;SDS011;41118;44.634;11.182;2023-01-13T07:13:18;3.63;;;0.82;;
55254;SDS011;41118;44.634;11.182;2023-01-13T07:16:04;6.35;;;0.82;;
55254;SDS011;41118;44.634;11.182;2023-01-13T07:18:31;3.63;;;0.95;;
55254;SDS011;41118;44.634;11.182;2023-01-13T07:21:02;8.45;;;0.90;;
55254;SDS011;41118;44.634;11.182;2023-01-13T07:23:29;3.97;;;1.05;;
55254;SDS011;41118;44.634;11.182;2023-01-13T07:25:56;9.65;;;1.15;;
55254;SDS011;41118;44.634;11.182;2023-01-13T07:28:23;4.10;;;1.08;;
55254;SDS011;41118;44.634;11.182;2023-01-13T07:30:49;4.65;;;1.23;;
55254;SDS011;41118;44.634;11.182;2023-01-13T07:33:15;3.33;;;0.80;;
55254;SDS011;41118;44.634;11.182;2023-01-13T07:35:42;3.55;;;0.90;;
55254;SDS011;41118;44.634;11.182;2023-01-13T07:38:08;7.63;;;2.47;;
55254;SDS011;41118;44.634;11.182;2023-01-13T07:40:35;4.95;;;1.58;;
55254;SDS011;41118;44.634;11.182;2023-01-13T07:43:02;4.78;;;1.42;;
55254;SDS011;41118;44.634;11.182;2023-01-13T07:45:47;7.72;;;1.52;;
55254;SDS011;41118;44.634;11.182;2023-01-13T07:48:13;4.70;;;1.05;;
55254;SDS011;41118;44.634;11.182;2023-01-13T07:50:39;7.18;;;1.45;;
55254;SDS011;41118;44.634;11.182;2023-01-13T07:53:05;8.40;;;1.95;;
55254;SDS011;41118;44.634;11.182;2023-01-13T07:55:31;6.75;;;2.05;;
55254;SDS011;41118;44.634;11.182;2023-01-13T07:57:57;6.20;;;1.23;;
55254;SDS011;41118;44.634;11.182;2023-01-13T08:00:23;4.43;;;1.27;;
55254;SDS011;41118;44.634;11.182;2023-01-13T08:02:49;5.93;;;1.63;;
55254;SDS011;41118;44.634;11.182;2023-01-13T08:05:15;5.55;;;1.08;;
55254;SDS011;41118;44.634;11.182;2023-01-13T08:07:42;10.23;;;1.77;;
55254;SDS011;41118;44.634;11.182;2023-01-13T08:10:08;7.13;;;1.77;;
55254;SDS011;41118;44.634;11.182;2023-01-13T08:12:34;6.10;;;1.88;;
55254;SDS011;41118;44.634;11.182;2023-01-13T08:15:19;6.25;;;1.75;;
55254;SDS011;41118;44.634;11.182;2023-01-13T08:17:45;4.43;;;1.05;;
55254;SDS011;41118;44.634;11.182;2023-01-13T08:20:11;13.10;;;1.70;;
55254;SDS011;41118;44.634;11.182;2023-01-13T08:22:38;8.05;;;1.60;;
55254;SDS011;41118;44.634;11.182;2023-01-13T08:25:04;9.43;;;2.45;;
55254;SDS011;41118;44.634;11.182;2023-01-13T08:27:30;4.88;;;1.77;;
55254;SDS011;41118;44.634;11.182;2023-01-13T08:29:56;10.18;;;1.88;;
55254;SDS011;41118;44.634;11.182;2023-01-13T08:32:23;16.35;;;2.63;;
55254;SDS011;41118;44.634;11.182;2023-01-13T08:34:49;14.98;;;2.88;;
55254;SDS011;41118;44.634;11.182;2023-01-13T08:37:16;6.43;;;2.83;;
55254;SDS011;41118;44.634;11.182;2023-01-13T08:39:42;9.55;;;1.85;;
55254;SDS011;41118;44.634;11.182;2023-01-13T08:42:08;9.18;;;3.08;;
55254;SDS011;41118;44.634;11.182;2023-01-13T08:44:34;9.38;;;3.85;;
55254;SDS011;41118;44.634;11.182;2023-01-13T08:47:00;9.57;;;2.92;;
55254;SDS011;41118;44.634;11.182;2023-01-13T08:49:26;18.20;;;4.07;;
55254;SDS011;41118;44.634;11.182;2023-01-13T08:51:52;8.68;;;3.42;;
55254;SDS011;41118;44.634;11.182;2023-01-13T08:54:19;6.47;;;2.05;;
55254;SDS011;41118;44.634;11.182;2023-01-13T08:56:45;13.40;;;3.50;;
55254;SDS011;41118;44.634;11.182;2023-01-13T08:59:15;15.75;;;4.32;;
55254;SDS011;41118;44.634;11.182;2023-01-13T09:01:41;8.55;;;3.30;;
55254;SDS011;41118;44.634;11.182;2023-01-13T09:04:11;11.30;;;3.13;;
55254;SDS011;41118;44.634;11.182;2023-01-13T09:06:39;9.25;;;3.20;;
55254;SDS011;41118;44.634;11.182;2023-01-13T09:09:05;9.32;;;3.55;;
55254;SDS011;41118;44.634;11.182;2023-01-13T09:11:32;8.02;;;2.58;;
55254;SDS011;41118;44.634;11.182;2023-01-13T09:14:18;12.65;;;3.65;;
55254;SDS011;41118;44.634;11.182;2023-01-13T09:16:44;13.25;;;4.70;;
55254;SDS011;41118;44.634;11.182;2023-01-13T09:19:11;9.55;;;3.28;;
55254;SDS011;41118;44.634;11.182;2023-01-13T09:21:37;10.93;;;5.03;;
55254;SDS011;41118;44.634;11.182;2023-01-13T09:24:03;9.18;;;5.25;;
55254;SDS011;41118;44.634;11.182;2023-01-13T09:26:30;13.68;;;4.82;;
55254;SDS011;41118;44.634;11.182;2023-01-13T09:28:57;30.67;;;5.65;;
55254;SDS011;41118;44.634;11.182;2023-01-13T09:31:23;8.68;;;4.43;;
55254;SDS011;41118;44.634;11.182;2023-01-13T09:33:50;12.55;;;5.63;;
55254;SDS011;41118;44.634;11.182;2023-01-13T09:36:34;17.17;;;6.90;;
55254;SDS011;41118;44.634;11.182;2023-01-13T09:39:00;19.00;;;6.78;;
55254;SDS011;41118;44.634;11.182;2023-01-13T09:41:27;11.02;;;5.13;;
55254;SDS011;41118;44.634;11.182;2023-01-13T09:44:14;17.30;;;8.18;;
55254;SDS011;41118;44.634;11.182;2023-01-13T09:46:51;16.20;;;7.65;;
55254;SDS011;41118;44.634;11.182;2023-01-13T09:49:20;15.82;;;6.88;;
55254;SDS011;41118;44.634;11.182;2023-01-13T09:52:02;14.02;;;6.38;;
55254;SDS011;41118;44.634;11.182;2023-01-13T09:57:31;15.80;;;8.35;;
55254;SDS011;41118;44.634;11.182;2023-01-13T09:59:58;17.27;;;7.88;;
55254;SDS011;41118;44.634;11.182;2023-01-13T10:07:41;15.70;;;7.93;;
55254;SDS011;41118;44.634;11.182;2023-01-13T10:10:11;17.38;;;9.40;;
55254;SDS011;41118;44.634;11.182;2023-01-13T10:12:40;17.50;;;6.88;;
55254;SDS011;41118;44.634;11.182;2023-01-13T10:15:25;18.58;;;9.73;;
55254;SDS011;41118;44.634;11.182;2023-01-13T10:20:25;17.83;;;7.97;;
55254;SDS011;41118;44.634;11.182;2023-01-13T10:28:53;16.95;;;8.88;;
55254;SDS011;41118;44.634;11.182;2023-01-13T10:31:19;16.98;;;7.65;;
55254;SDS011;41118;44.634;11.182;2023-01-13T10:33:46;22.60;;;9.63;;
55254;SDS011;41118;44.634;11.182;2023-01-13T10:36:13;15.05;;;8.27;;
55254;SDS011;41118;44.634;11.182;2023-01-13T10:38:40;18.13;;;9.07;;
55254;SDS011;41118;44.634;11.182;2023-01-13T10:41:17;16.75;;;8.70;;
55254;SDS011;41118;44.634;11.182;2023-01-13T10:44:05;18.98;;;9.95;;
55254;SDS011;41118;44.634;11.182;2023-01-13T10:46:33;17.20;;;8.18;;
55254;SDS011;41118;44.634;11.182;2023-01-13T10:49:00;16.42;;;7.13;;
55254;SDS011;41118;44.634;11.182;2023-01-13T10:53:57;22.80;;;8.27;;
55254;SDS011;41118;44.634;11.182;2023-01-13T10:56:25;18.58;;;9.30;;
55254;SDS011;41118;44.634;11.182;2023-01-13T10:58:56;17.02;;;7.63;;
55254;SDS011;41118;44.634;11.182;2023-01-13T11:01:33;16.73;;;8.63;;
55254;SDS011;41118;44.634;11.182;2023-01-13T11:03:59;14.60;;;8.43;;
55254;SDS011;41118;44.634;11.182;2023-01-13T11:06:27;25.40;;;7.82;;
55254;SDS011;41118;44.634;11.182;2023-01-13T11:08:54;20.83;;;9.18;;
55254;SDS011;41118;44.634;11.182;2023-01-13T11:11:38;16.00;;;8.52;;
55254;SDS011;41118;44.634;11.182;2023-01-13T11:14:13;20.52;;;8.32;;
55254;SDS011;41118;44.634;11.182;2023-01-13T11:17:05;20.13;;;7.63;;
55254;SDS011;41118;44.634;11.182;2023-01-13T11:19:35;20.60;;;9.18;;
55254;SDS011;41118;44.634;11.182;2023-01-13T11:22:13;24.40;;;9.63;;
55254;SDS011;41118;44.634;11.182;2023-01-13T11:32:13;23.95;;;9.75;;
55254;SDS011;41118;44.634;11.182;2023-01-13T11:34:41;25.85;;;9.48;;
55254;SDS011;41118;44.634;11.182;2023-01-13T11:37:30;22.67;;;10.95;;
55254;SDS011;41118;44.634;11.182;2023-01-13T11:42:42;23.75;;;9.60;;
55254;SDS011;41118;44.634;11.182;2023-01-13T11:47:53;25.65;;;11.07;;
55254;SDS011;41118;44.634;11.182;2023-01-13T11:53:06;17.75;;;10.25;;
55254;SDS011;41118;44.634;11.182;2023-01-13T11:55:37;29.05;;;14.52;;
55254;SDS011;41118;44.634;11.182;2023-01-13T11:58:45;27.85;;;16.42;;
55254;SDS011;41118;44.634;11.182;2023-01-13T12:03:42;29.60;;;14.73;;
55254;SDS011;41118;44.634;11.182;2023-01-13T12:16:20;33.50;;;18.95;;
55254;SDS011;41118;44.634;11.182;2023-01-13T12:21:32;35.40;;;21.88;;
55254;SDS011;41118;44.634;11.182;2023-01-13T12:24:23;34.30;;;20.63;;
55254;SDS011;41118;44.634;11.182;2023-01-13T12:26:49;34.63;;;21.40;;
55254;SDS011;41118;44.634;11.182;2023-01-13T12:29:19;31.67;;;19.25;;
55254;SDS011;41118;44.634;11.182;2023-01-13T12:31:49;33.40;;;21.73;;
55254;SDS011;41118;44.634;11.182;2023-01-13T12:39:41;38.10;;;20.23;;
55254;SDS011;41118;44.634;11.182;2023-01-13T12:42:16;30.08;;;11.13;;
55254;SDS011;41118;44.634;11.182;2023-01-13T12:47:39;19.30;;;10.90;;
55254;SDS011;41118;44.634;11.182;2023-01-13T12:52:49;25.00;;;13.15;;
55254;SDS011;41118;44.634;11.182;2023-01-13T12:55:18;23.35;;;12.35;;
55254;SDS011;41118;44.634;11.182;2023-01-13T13:00:20;21.17;;;13.27;;
55254;SDS011;41118;44.634;11.182;2023-01-13T13:05:38;29.90;;;15.10;;
55254;SDS011;41118;44.634;11.182;2023-01-13T13:13:55;34.42;;;22.83;;
55254;SDS011;41118;44.634;11.182;2023-01-13T13:18:51;42.20;;;22.95;;
55254;SDS011;41118;44.634;11.182;2023-01-13T13:21:17;32.63;;;19.63;;
55254;SDS011;41118;44.634;11.182;2023-01-13T13:23:56;34.90;;;19.23;;
55254;SDS011;41118;44.634;11.182;2023-01-13T13:36:57;32.08;;;16.75;;
55254;SDS011;41118;44.634;11.182;2023-01-13T13:39:29;27.27;;;15.40;;
55254;SDS011;41118;44.634;11.182;2023-01-13T13:47:43;25.52;;;15.27;;
55254;SDS011;41118;44.634;11.182;2023-01-13T13:50:19;27.73;;;14.70;;
55254;SDS011;41118;44.634;11.182;2023-01-13T13:52:48;23.77;;;13.82;;
55254;SDS011;41118;44.634;11.182;2023-01-13T13:55:23;26.77;;;14.68;;
55254;SDS011;41118;44.634;11.182;2023-01-13T13:57:51;28.35;;;14.85;;
55254;SDS011;41118;44.634;11.182;2023-01-13T14:00:19;30.42;;;16.40;;
55254;SDS011;41118;44.634;11.182;2023-01-13T14:02:46;27.50;;;17.58;;
55254;SDS011;41118;44.634;11.182;2023-01-13T14:05:21;28.63;;;17.05;;
55254;SDS011;41118;44.634;11.182;2023-01-13T14:07:49;28.45;;;16.25;;
55254;SDS011;41118;44.634;11.182;2023-01-13T14:12:44;24.42;;;16.08;;
55254;SDS011;41118;44.634;11.182;2023-01-13T14:15:22;33.00;;;14.90;;
55254;SDS011;41118;44.634;11.182;2023-01-13T14:17:48;28.77;;;15.68;;
55254;SDS011;41118;44.634;11.182;2023-01-13T14:20:16;22.50;;;14.70;;
55254;SDS011;41118;44.634;11.182;2023-01-13T14:22:46;29.42;;;16.35;;
55254;SDS011;41118;44.634;11.182;2023-01-13T14:25:25;32.30;;;16.88;;
55254;SDS011;41118;44.634;11.182;2023-01-13T14:27:53;30.85;;;15.40;;
55254;SDS011;41118;44.634;11.182;2023-01-13T14:30:19;23.63;;;14.27;;
55254;SDS011;41118;44.634;11.182;2023-01-13T14:32:46;26.35;;;14.52;;
55254;SDS011;41118;44.634;11.182;2023-01-13T14:35:16;24.38;;;11.20;;
55254;SDS011;41118;44.634;11.182;2023-01-13T14:37:43;31.90;;;14.98;;
55254;SDS011;41118;44.634;11.182;2023-01-13T14:42:58;25.55;;;14.40;;
55254;SDS011;41118;44.634;11.182;2023-01-13T14:45:24;23.25;;;14.75;;
55254;SDS011;41118;44.634;11.182;2023-01-13T14:47:51;29.33;;;14.93;;
55254;SDS011;41118;44.634;11.182;2023-01-13T14:50:22;31.88;;;15.32;;
55254;SDS011;41118;44.634;11.182;2023-01-13T14:52:53;28.13;;;14.38;;
55254;SDS011;41118;44.634;11.182;2023-01-13T14:55:27;26.00;;;15.85;;
55254;SDS011;41118;44.634;11.182;2023-01-13T15:00:39;32.22;;;16.48;;
55254;SDS011;41118;44.634;11.182;2023-01-13T15:03:06;30.20;;;15.20;;
55254;SDS011;41118;44.634;11.182;2023-01-13T15:05:33;22.40;;;13.88;;
55254;SDS011;41118;44.634;11.182;2023-01-13T15:10:48;26.58;;;16.00;;
55254;SDS011;41118;44.634;11.182;2023-01-13T15:15:50;28.73;;;14.65;;
55254;SDS011;41118;44.634;11.182;2023-01-13T15:18:17;23.63;;;13.85;;
55254;SDS011;41118;44.634;11.182;2023-01-13T15:20:43;27.05;;;14.18;;
55254;SDS011;41118;44.634;11.182;2023-01-13T15:23:09;24.20;;;13.82;;
55254;SDS011;41118;44.634;11.182;2023-01-13T15:25:37;26.42;;;12.75;;
55254;SDS011;41118;44.634;11.182;2023-01-13T15:28:03;26.40;;;12.43;;
55254;SDS011;41118;44.634;11.182;2023-01-13T15:30:30;26.58;;;14.68;;
55254;SDS011;41118;44.634;11.182;2023-01-13T15:32:56;36.58;;;19.00;;
55254;SDS011;41118;44.634;11.182;2023-01-13T15:35:24;35.28;;;16.13;;
55254;SDS011;41118;44.634;11.182;2023-01-13T15:37:50;38.03;;;17.85;;
55254;SDS011;41118;44.634;11.182;2023-01-13T15:42:43;36.42;;;16.70;;
55254;SDS011;41118;44.634;11.182;2023-01-13T15:45:27;35.97;;;18.55;;
55254;SDS011;41118;44.634;11.182;2023-01-13T15:48:13;35.80;;;18.35;;
55254;SDS011;41118;44.634;11.182;2023-01-13T15:50:39;36.75;;;17.02;;
55254;SDS011;41118;44.634;11.182;2023-01-13T15:53:05;38.22;;;19.60;;
55254;SDS011;41118;44.634;11.182;2023-01-13T15:55:32;36.13;;;18.60;;
55254;SDS011;41118;44.634;11.182;2023-01-13T15:58:00;37.13;;;17.40;;
55254;SDS011;41118;44.634;11.182;2023-01-13T16:00:26;28.60;;;18.00;;
55254;SDS011;41118;44.634;11.182;2023-01-13T16:02:52;33.15;;;17.27;;
55254;SDS011;41118;44.634;11.182;2023-01-13T16:05:19;38.05;;;18.88;;
55254;SDS011;41118;44.634;11.182;2023-01-13T16:07:45;30.25;;;16.42;;
55254;SDS011;41118;44.634;11.182;2023-01-13T16:10:20;32.17;;;17.92;;
55254;SDS011;41118;44.634;11.182;2023-01-13T16:12:47;32.63;;;18.65;;
55254;SDS011;41118;44.634;11.182;2023-01-13T16:15:14;30.98;;;18.45;;
55254;SDS011;41118;44.634;11.182;2023-01-13T16:17:41;39.47;;;17.48;;
55254;SDS011;41118;44.634;11.182;2023-01-13T16:20:12;33.17;;;17.95;;
55254;SDS011;41118;44.634;11.182;2023-01-13T16:22:38;32.92;;;17.77;;
55254;SDS011;41118;44.634;11.182;2023-01-13T16:25:04;37.85;;;17.70;;
55254;SDS011;41118;44.634;11.182;2023-01-13T16:27:31;36.47;;;20.00;;
55254;SDS011;41118;44.634;11.182;2023-01-13T16:29:57;34.70;;;17.38;;
55254;SDS011;41118;44.634;11.182;2023-01-13T16:32:23;34.13;;;15.95;;
55254;SDS011;41118;44.634;11.182;2023-01-13T16:34:49;31.33;;;17.42;;
55254;SDS011;41118;44.634;11.182;2023-01-13T16:37:17;33.28;;;16.95;;
55254;SDS011;41118;44.634;11.182;2023-01-13T16:39:43;36.63;;;17.98;;
55254;SDS011;41118;44.634;11.182;2023-01-13T16:42:10;38.28;;;15.50;;
55254;SDS011;41118;44.634;11.182;2023-01-13T16:44:36;34.92;;;16.80;;
55254;SDS011;41118;44.634;11.182;2023-01-13T16:47:02;33.65;;;17.88;;
55254;SDS011;41118;44.634;11.182;2023-01-13T16:49:29;34.03;;;19.30;;
55254;SDS011;41118;44.634;11.182;2023-01-13T16:51:55;39.95;;;20.10;;
55254;SDS011;41118;44.634;11.182;2023-01-13T16:54:20;37.65;;;19.02;;
55254;SDS011;41118;44.634;11.182;2023-01-13T16:56:47;40.90;;;18.27;;
55254;SDS011;41118;44.634;11.182;2023-01-13T16:59:13;34.35;;;17.17;;
55254;SDS011;41118;44.634;11.182;2023-01-13T17:01:41;34.58;;;18.17;;
55254;SDS011;41118;44.634;11.182;2023-01-13T17:04:12;34.17;;;17.42;;
55254;SDS011;41118;44.634;11.182;2023-01-13T17:06:40;34.03;;;18.88;;